sensor_id;sensor_type;location;lat;lon;timestamp;P1;durP1;ratioP1;P2;durP2;ratioP2
72590;SDS011;60625;51.212;5.952;2022-12-11T00:05:00;44.60;;;15.70;;
72590;SDS011;60625;51.212;5.952;2022-12-11T00:10:01;47.50;;;16.90;;
72590;SDS011;60625;51.212;5.952;2022-12-11T00:15:02;43.40;;;15.30;;
72590;SDS011;60625;51.212;5.952;2022-12-11T00:20:04;45.40;;;15.50;;
72590;SDS011;60625;51.212;5.952;2022-12-11T00:25:05;44.70;;;15.40;;
72590;SDS011;60625;51.212;5.952;2022-12-11T00:30:07;42.90;;;14.50;;
72590;SDS011;60625;51.212;5.952;2022-12-11T00:35:08;43.50;;;14.90;;
72590;SDS011;60625;51.212;5.952;2022-12-11T00:40:10;45.80;;;14.90;;
72590;SDS011;60625;51.212;5.952;2022-12-11T00:45:11;49.80;;;14.80;;
72590;SDS011;60625;51.212;5.952;2022-12-11T00:50:12;42.60;;;15.50;;
72590;SDS011;60625;51.212;5.952;2022-12-11T00:55:13;48.50;;;13.90;;
72590;SDS011;60625;51.212;5.952;2022-12-11T01:00:14;44.50;;;14.70;;
72590;SDS011;60625;51.212;5.952;2022-12-11T01:05:15;44.10;;;14.40;;
72590;SDS011;60625;51.212;5.952;2022-12-11T01:10:16;48.00;;;15.60;;
72590;SDS011;60625;51.212;5.952;2022-12-11T01:15:30;38.70;;;14.20;;
72590;SDS011;60625;51.212;5.952;2022-12-11T01:20:33;42.20;;;14.90;;
72590;SDS011;60625;51.212;5.952;2022-12-11T01:25:34;37.20;;;13.70;;
72590;SDS011;60625;51.212;5.952;2022-12-11T01:30:40;43.30;;;14.10;;
72590;SDS011;60625;51.212;5.952;2022-12-11T01:35:42;39.20;;;13.70;;
72590;SDS011;60625;51.212;5.952;2022-12-11T01:40:47;35.60;;;12.70;;
72590;SDS011;60625;51.212;5.952;2022-12-11T01:45:48;35.10;;;13.20;;
72590;SDS011;60625;51.212;5.952;2022-12-11T01:50:49;39.30;;;13.90;;
72590;SDS011;60625;51.212;5.952;2022-12-11T01:56:01;41.90;;;14.50;;
72590;SDS011;60625;51.212;5.952;2022-12-11T02:01:03;38.60;;;13.60;;
72590;SDS011;60625;51.212;5.952;2022-12-11T02:06:04;35.20;;;13.60;;
72590;SDS011;60625;51.212;5.952;2022-12-11T02:11:15;35.30;;;13.10;;
72590;SDS011;60625;51.212;5.952;2022-12-11T02:16:29;37.10;;;12.80;;
72590;SDS011;60625;51.212;5.952;2022-12-11T02:21:46;38.40;;;13.30;;
72590;SDS011;60625;51.212;5.952;2022-12-11T02:27:19;40.50;;;14.20;;
72590;SDS011;60625;51.212;5.952;2022-12-11T02:32:37;36.70;;;12.20;;
72590;SDS011;60625;51.212;5.952;2022-12-11T02:37:44;37.10;;;13.20;;
72590;SDS011;60625;51.212;5.952;2022-12-11T02:42:47;37.30;;;13.50;;
72590;SDS011;60625;51.212;5.952;2022-12-11T02:47:49;40.70;;;13.40;;
72590;SDS011;60625;51.212;5.952;2022-12-11T02:52:52;34.10;;;11.90;;
72590;SDS011;60625;51.212;5.952;2022-12-11T02:58:08;32.90;;;11.60;;
72590;SDS011;60625;51.212;5.952;2022-12-11T03:03:13;28.80;;;11.60;;
72590;SDS011;60625;51.212;5.952;2022-12-11T03:08:13;32.20;;;11.00;;
72590;SDS011;60625;51.212;5.952;2022-12-11T03:13:19;31.90;;;10.90;;
72590;SDS011;60625;51.212;5.952;2022-12-11T03:18:31;26.90;;;10.30;;
72590;SDS011;60625;51.212;5.952;2022-12-11T03:23:49;32.50;;;12.30;;
72590;SDS011;60625;51.212;5.952;2022-12-11T03:28:59;31.70;;;11.90;;
72590;SDS011;60625;51.212;5.952;2022-12-11T03:34:12;30.50;;;10.50;;
72590;SDS011;60625;51.212;5.952;2022-12-11T03:39:22;31.50;;;10.80;;
72590;SDS011;60625;51.212;5.952;2022-12-11T03:44:27;32.00;;;10.60;;
72590;SDS011;60625;51.212;5.952;2022-12-11T03:49:34;28.40;;;10.50;;
72590;SDS011;60625;51.212;5.952;2022-12-11T03:54:40;29.10;;;10.50;;
72590;SDS011;60625;51.212;5.952;2022-12-11T03:59:41;31.10;;;10.40;;
72590;SDS011;60625;51.212;5.952;2022-12-11T04:04:42;25.90;;;11.40;;
72590;SDS011;60625;51.212;5.952;2022-12-11T04:09:43;28.90;;;10.20;;
72590;SDS011;60625;51.212;5.952;2022-12-11T04:14:43;25.50;;;9.60;;
72590;SDS011;60625;51.212;5.952;2022-12-11T04:20:04;25.30;;;9.10;;
72590;SDS011;60625;51.212;5.952;2022-12-11T04:25:24;22.40;;;9.50;;
72590;SDS011;60625;51.212;5.952;2022-12-11T04:30:25;28.00;;;9.40;;
72590;SDS011;60625;51.212;5.952;2022-12-11T04:35:26;23.30;;;9.10;;
72590;SDS011;60625;51.212;5.952;2022-12-11T04:40:27;24.60;;;9.10;;
72590;SDS011;60625;51.212;5.952;2022-12-11T04:45:27;24.80;;;9.30;;
72590;SDS011;60625;51.212;5.952;2022-12-11T04:50:28;24.60;;;9.30;;
72590;SDS011;60625;51.212;5.952;2022-12-11T04:55:28;23.00;;;8.50;;
72590;SDS011;60625;51.212;5.952;2022-12-11T05:00:29;23.50;;;9.80;;
72590;SDS011;60625;51.212;5.952;2022-12-11T05:05:29;20.90;;;8.50;;
72590;SDS011;60625;51.212;5.952;2022-12-11T05:10:30;26.90;;;10.10;;
72590;SDS011;60625;51.212;5.952;2022-12-11T05:15:30;24.40;;;9.80;;
72590;SDS011;60625;51.212;5.952;2022-12-11T05:20:31;20.50;;;7.90;;
72590;SDS011;60625;51.212;5.952;2022-12-11T05:25:31;20.50;;;8.40;;
72590;SDS011;60625;51.212;5.952;2022-12-11T05:30:31;20.30;;;8.00;;
72590;SDS011;60625;51.212;5.952;2022-12-11T05:35:32;19.40;;;7.90;;
72590;SDS011;60625;51.212;5.952;2022-12-11T05:40:33;22.10;;;9.30;;
72590;SDS011;60625;51.212;5.952;2022-12-11T05:45:33;21.90;;;8.20;;
72590;SDS011;60625;51.212;5.952;2022-12-11T05:50:33;25.30;;;8.70;;
72590;SDS011;60625;51.212;5.952;2022-12-11T05:55:34;22.00;;;9.00;;
72590;SDS011;60625;51.212;5.952;2022-12-11T06:00:34;18.60;;;7.90;;
72590;SDS011;60625;51.212;5.952;2022-12-11T06:05:39;20.40;;;9.20;;
72590;SDS011;60625;51.212;5.952;2022-12-11T06:10:48;21.10;;;8.60;;
72590;SDS011;60625;51.212;5.952;2022-12-11T06:15:49;17.90;;;9.40;;
72590;SDS011;60625;51.212;5.952;2022-12-11T06:20:50;21.20;;;9.20;;
72590;SDS011;60625;51.212;5.952;2022-12-11T06:25:50;23.00;;;9.70;;
72590;SDS011;60625;51.212;5.952;2022-12-11T06:30:51;23.00;;;9.60;;
72590;SDS011;60625;51.212;5.952;2022-12-11T06:35:51;19.90;;;9.40;;
72590;SDS011;60625;51.212;5.952;2022-12-11T06:40:56;24.00;;;9.50;;
72590;SDS011;60625;51.212;5.952;2022-12-11T06:45:58;21.40;;;10.00;;
72590;SDS011;60625;51.212;5.952;2022-12-11T06:50:59;20.70;;;9.20;;
72590;SDS011;60625;51.212;5.952;2022-12-11T06:56:06;19.10;;;8.50;;
72590;SDS011;60625;51.212;5.952;2022-12-11T07:01:13;21.50;;;9.00;;
72590;SDS011;60625;51.212;5.952;2022-12-11T07:06:17;21.20;;;9.00;;
72590;SDS011;60625;51.212;5.952;2022-12-11T07:11:18;17.40;;;7.60;;
72590;SDS011;60625;51.212;5.952;2022-12-11T07:16:19;15.40;;;7.20;;
72590;SDS011;60625;51.212;5.952;2022-12-11T07:21:20;15.90;;;7.30;;
72590;SDS011;60625;51.212;5.952;2022-12-11T07:26:21;17.10;;;7.50;;
72590;SDS011;60625;51.212;5.952;2022-12-11T07:31:23;18.90;;;7.30;;
72590;SDS011;60625;51.212;5.952;2022-12-11T07:36:26;18.70;;;8.10;;
72590;SDS011;60625;51.212;5.952;2022-12-11T07:41:27;17.70;;;7.20;;
72590;SDS011;60625;51.212;5.952;2022-12-11T07:46:30;17.90;;;6.80;;
72590;SDS011;60625;51.212;5.952;2022-12-11T07:51:34;17.20;;;6.90;;
72590;SDS011;60625;51.212;5.952;2022-12-11T07:56:35;17.60;;;7.00;;
72590;SDS011;60625;51.212;5.952;2022-12-11T08:01:36;15.40;;;6.60;;
72590;SDS011;60625;51.212;5.952;2022-12-11T08:06:38;15.50;;;7.40;;
72590;SDS011;60625;51.212;5.952;2022-12-11T08:11:39;16.50;;;6.90;;
72590;SDS011;60625;51.212;5.952;2022-12-11T08:16:40;16.70;;;7.00;;
72590;SDS011;60625;51.212;5.952;2022-12-11T08:21:42;15.20;;;6.40;;
72590;SDS011;60625;51.212;5.952;2022-12-11T08:26:43;16.30;;;7.30;;
72590;SDS011;60625;51.212;5.952;2022-12-11T08:31:44;16.50;;;6.90;;
72590;SDS011;60625;51.212;5.952;2022-12-11T08:36:45;18.80;;;7.70;;
72590;SDS011;60625;51.212;5.952;2022-12-11T08:41:45;16.80;;;7.70;;
72590;SDS011;60625;51.212;5.952;2022-12-11T08:46:45;22.40;;;9.20;;
72590;SDS011;60625;51.212;5.952;2022-12-11T08:51:47;24.50;;;11.30;;
72590;SDS011;60625;51.212;5.952;2022-12-11T08:56:47;26.80;;;10.90;;
72590;SDS011;60625;51.212;5.952;2022-12-11T09:01:47;22.30;;;9.40;;
72590;SDS011;60625;51.212;5.952;2022-12-11T09:06:48;21.80;;;9.80;;
72590;SDS011;60625;51.212;5.952;2022-12-11T09:11:49;18.30;;;8.00;;
72590;SDS011;60625;51.212;5.952;2022-12-11T09:16:49;21.30;;;8.60;;
72590;SDS011;60625;51.212;5.952;2022-12-11T09:21:49;20.20;;;8.60;;
72590;SDS011;60625;51.212;5.952;2022-12-11T09:32:34;18.00;;;7.70;;
72590;SDS011;60625;51.212;5.952;2022-12-11T09:37:35;19.30;;;7.80;;
72590;SDS011;60625;51.212;5.952;2022-12-11T09:43:02;15.10;;;6.20;;
72590;SDS011;60625;51.212;5.952;2022-12-11T09:48:20;16.80;;;7.30;;
72590;SDS011;60625;51.212;5.952;2022-12-11T09:53:42;18.20;;;7.70;;
72590;SDS011;60625;51.212;5.952;2022-12-11T09:59:07;15.40;;;7.10;;
72590;SDS011;60625;51.212;5.952;2022-12-11T10:10:35;21.50;;;8.00;;
72590;SDS011;60625;51.212;5.952;2022-12-11T10:21:43;15.30;;;7.20;;
72590;SDS011;60625;51.212;5.952;2022-12-11T10:26:45;18.10;;;5.90;;
72590;SDS011;60625;51.212;5.952;2022-12-11T10:31:53;16.90;;;7.80;;
72590;SDS011;60625;51.212;5.952;2022-12-11T10:36:55;16.90;;;7.00;;
72590;SDS011;60625;51.212;5.952;2022-12-11T10:41:56;16.30;;;6.80;;
72590;SDS011;60625;51.212;5.952;2022-12-11T10:47:12;18.90;;;7.00;;
72590;SDS011;60625;51.212;5.952;2022-12-11T10:52:21;17.40;;;7.40;;
72590;SDS011;60625;51.212;5.952;2022-12-11T10:57:34;16.90;;;7.20;;
72590;SDS011;60625;51.212;5.952;2022-12-11T11:02:37;17.30;;;7.40;;
72590;SDS011;60625;51.212;5.952;2022-12-11T11:07:39;17.10;;;7.70;;
72590;SDS011;60625;51.212;5.952;2022-12-11T11:12:46;15.10;;;7.10;;
72590;SDS011;60625;51.212;5.952;2022-12-11T11:17:52;16.90;;;7.70;;
72590;SDS011;60625;51.212;5.952;2022-12-11T11:23:07;19.10;;;7.30;;
72590;SDS011;60625;51.212;5.952;2022-12-11T11:28:25;16.70;;;7.30;;
72590;SDS011;60625;51.212;5.952;2022-12-11T11:33:27;15.50;;;7.10;;
72590;SDS011;60625;51.212;5.952;2022-12-11T11:38:35;17.70;;;7.50;;
72590;SDS011;60625;51.212;5.952;2022-12-11T11:43:53;16.60;;;7.60;;
72590;SDS011;60625;51.212;5.952;2022-12-11T11:49:21;16.90;;;7.40;;
72590;SDS011;60625;51.212;5.952;2022-12-11T11:54:38;18.20;;;7.70;;
72590;SDS011;60625;51.212;5.952;2022-12-11T11:59:46;19.80;;;7.40;;
72590;SDS011;60625;51.212;5.952;2022-12-11T12:04:50;17.00;;;7.50;;
72590;SDS011;60625;51.212;5.952;2022-12-11T12:10:02;14.00;;;6.90;;
72590;SDS011;60625;51.212;5.952;2022-12-11T12:21:11;15.60;;;6.70;;
72590;SDS011;60625;51.212;5.952;2022-12-11T12:26:31;18.40;;;7.00;;
72590;SDS011;60625;51.212;5.952;2022-12-11T12:48:07;15.90;;;6.40;;
72590;SDS011;60625;51.212;5.952;2022-12-11T12:53:14;15.50;;;6.90;;
72590;SDS011;60625;51.212;5.952;2022-12-11T12:58:26;17.90;;;7.80;;
72590;SDS011;60625;51.212;5.952;2022-12-11T13:03:33;14.90;;;6.60;;
72590;SDS011;60625;51.212;5.952;2022-12-11T13:08:46;17.90;;;7.90;;
72590;SDS011;60625;51.212;5.952;2022-12-11T13:24:28;15.70;;;7.10;;
72590;SDS011;60625;51.212;5.952;2022-12-11T13:34:41;17.00;;;7.50;;
72590;SDS011;60625;51.212;5.952;2022-12-11T13:39:46;16.20;;;7.10;;
72590;SDS011;60625;51.212;5.952;2022-12-11T13:44:47;16.30;;;7.30;;
72590;SDS011;60625;51.212;5.952;2022-12-11T13:49:53;19.00;;;8.50;;
72590;SDS011;60625;51.212;5.952;2022-12-11T13:54:55;19.10;;;8.00;;
72590;SDS011;60625;51.212;5.952;2022-12-11T13:59:58;18.80;;;7.40;;
72590;SDS011;60625;51.212;5.952;2022-12-11T14:05:01;17.40;;;7.60;;
72590;SDS011;60625;51.212;5.952;2022-12-11T14:10:13;16.70;;;7.70;;
72590;SDS011;60625;51.212;5.952;2022-12-11T14:15:22;17.00;;;7.10;;
72590;SDS011;60625;51.212;5.952;2022-12-11T14:20:27;17.00;;;7.60;;
72590;SDS011;60625;51.212;5.952;2022-12-11T14:25:28;18.70;;;7.60;;
72590;SDS011;60625;51.212;5.952;2022-12-11T14:30:31;16.10;;;7.60;;
72590;SDS011;60625;51.212;5.952;2022-12-11T14:35:38;15.90;;;7.30;;
72590;SDS011;60625;51.212;5.952;2022-12-11T14:40:42;16.70;;;8.20;;
72590;SDS011;60625;51.212;5.952;2022-12-11T14:45:46;15.90;;;7.30;;
72590;SDS011;60625;51.212;5.952;2022-12-11T14:50:50;18.70;;;7.50;;
72590;SDS011;60625;51.212;5.952;2022-12-11T14:55:53;14.00;;;7.10;;
72590;SDS011;60625;51.212;5.952;2022-12-11T15:01:01;17.00;;;8.30;;
72590;SDS011;60625;51.212;5.952;2022-12-11T15:06:30;18.50;;;7.60;;
72590;SDS011;60625;51.212;5.952;2022-12-11T15:11:32;17.80;;;6.70;;
72590;SDS011;60625;51.212;5.952;2022-12-11T15:16:37;16.00;;;7.40;;
72590;SDS011;60625;51.212;5.952;2022-12-11T15:21:38;14.90;;;6.20;;
72590;SDS011;60625;51.212;5.952;2022-12-11T15:26:44;15.70;;;7.20;;
72590;SDS011;60625;51.212;5.952;2022-12-11T15:31:45;16.80;;;7.80;;
72590;SDS011;60625;51.212;5.952;2022-12-11T15:36:45;17.40;;;8.40;;
72590;SDS011;60625;51.212;5.952;2022-12-11T15:41:46;18.20;;;7.80;;
72590;SDS011;60625;51.212;5.952;2022-12-11T15:46:46;14.80;;;7.40;;
72590;SDS011;60625;51.212;5.952;2022-12-11T15:51:47;19.60;;;8.60;;
72590;SDS011;60625;51.212;5.952;2022-12-11T15:56:48;18.10;;;8.60;;
72590;SDS011;60625;51.212;5.952;2022-12-11T16:01:48;18.00;;;8.40;;
72590;SDS011;60625;51.212;5.952;2022-12-11T16:06:49;16.10;;;8.30;;
72590;SDS011;60625;51.212;5.952;2022-12-11T16:11:50;16.90;;;8.10;;
72590;SDS011;60625;51.212;5.952;2022-12-11T16:16:51;17.30;;;8.90;;
72590;SDS011;60625;51.212;5.952;2022-12-11T16:21:51;15.50;;;8.20;;
72590;SDS011;60625;51.212;5.952;2022-12-11T16:26:52;19.00;;;9.00;;
72590;SDS011;60625;51.212;5.952;2022-12-11T16:31:52;17.80;;;8.20;;
72590;SDS011;60625;51.212;5.952;2022-12-11T16:36:56;21.90;;;10.30;;
72590;SDS011;60625;51.212;5.952;2022-12-11T16:41:57;17.60;;;9.50;;
72590;SDS011;60625;51.212;5.952;2022-12-11T16:46:57;19.90;;;9.60;;
72590;SDS011;60625;51.212;5.952;2022-12-11T16:51:58;14.90;;;7.10;;
72590;SDS011;60625;51.212;5.952;2022-12-11T16:56:59;16.40;;;9.10;;
72590;SDS011;60625;51.212;5.952;2022-12-11T17:01:59;16.30;;;8.60;;
72590;SDS011;60625;51.212;5.952;2022-12-11T17:07:00;18.10;;;8.70;;
72590;SDS011;60625;51.212;5.952;2022-12-11T17:12:00;17.10;;;8.20;;
72590;SDS011;60625;51.212;5.952;2022-12-11T17:17:01;18.90;;;9.20;;
72590;SDS011;60625;51.212;5.952;2022-12-11T17:22:02;19.00;;;8.70;;
72590;SDS011;60625;51.212;5.952;2022-12-11T17:27:03;16.60;;;8.90;;
72590;SDS011;60625;51.212;5.952;2022-12-11T17:32:04;16.50;;;7.70;;
72590;SDS011;60625;51.212;5.952;2022-12-11T17:37:05;15.70;;;8.20;;
72590;SDS011;60625;51.212;5.952;2022-12-11T17:42:05;18.20;;;7.60;;
72590;SDS011;60625;51.212;5.952;2022-12-11T17:47:06;17.10;;;7.40;;
72590;SDS011;60625;51.212;5.952;2022-12-11T17:52:06;17.80;;;7.20;;
72590;SDS011;60625;51.212;5.952;2022-12-11T17:57:07;21.40;;;9.20;;
72590;SDS011;60625;51.212;5.952;2022-12-11T18:02:08;21.00;;;9.40;;
72590;SDS011;60625;51.212;5.952;2022-12-11T18:07:09;19.00;;;9.70;;
72590;SDS011;60625;51.212;5.952;2022-12-11T18:12:10;19.80;;;9.00;;
72590;SDS011;60625;51.212;5.952;2022-12-11T18:17:10;19.80;;;9.60;;
72590;SDS011;60625;51.212;5.952;2022-12-11T18:22:11;19.20;;;9.40;;
72590;SDS011;60625;51.212;5.952;2022-12-11T18:27:12;21.70;;;9.60;;
72590;SDS011;60625;51.212;5.952;2022-12-11T18:32:14;19.00;;;7.90;;
72590;SDS011;60625;51.212;5.952;2022-12-11T18:37:14;18.60;;;8.40;;
72590;SDS011;60625;51.212;5.952;2022-12-11T18:42:15;16.00;;;8.10;;
72590;SDS011;60625;51.212;5.952;2022-12-11T18:47:15;18.40;;;8.70;;
72590;SDS011;60625;51.212;5.952;2022-12-11T18:52:16;18.80;;;8.20;;
72590;SDS011;60625;51.212;5.952;2022-12-11T18:57:18;19.10;;;9.20;;
72590;SDS011;60625;51.212;5.952;2022-12-11T19:02:19;17.00;;;8.10;;
72590;SDS011;60625;51.212;5.952;2022-12-11T19:07:20;17.80;;;8.50;;
72590;SDS011;60625;51.212;5.952;2022-12-11T19:12:20;19.70;;;10.20;;
72590;SDS011;60625;51.212;5.952;2022-12-11T19:17:21;20.10;;;10.50;;
72590;SDS011;60625;51.212;5.952;2022-12-11T19:22:21;21.00;;;8.70;;
72590;SDS011;60625;51.212;5.952;2022-12-11T19:27:22;18.80;;;8.50;;
72590;SDS011;60625;51.212;5.952;2022-12-11T19:32:22;23.30;;;10.00;;
72590;SDS011;60625;51.212;5.952;2022-12-11T19:37:22;20.90;;;10.60;;
72590;SDS011;60625;51.212;5.952;2022-12-11T19:42:23;22.90;;;10.70;;
72590;SDS011;60625;51.212;5.952;2022-12-11T19:47:26;19.90;;;9.80;;
72590;SDS011;60625;51.212;5.952;2022-12-11T19:52:26;22.30;;;10.70;;
72590;SDS011;60625;51.212;5.952;2022-12-11T19:57:27;22.60;;;9.90;;
72590;SDS011;60625;51.212;5.952;2022-12-11T20:02:27;21.50;;;10.50;;
72590;SDS011;60625;51.212;5.952;2022-12-11T20:07:28;27.60;;;12.40;;
72590;SDS011;60625;51.212;5.952;2022-12-11T20:12:29;24.50;;;11.90;;
72590;SDS011;60625;51.212;5.952;2022-12-11T20:17:29;25.00;;;12.00;;
72590;SDS011;60625;51.212;5.952;2022-12-11T20:22:30;23.30;;;10.10;;
72590;SDS011;60625;51.212;5.952;2022-12-11T20:27:31;20.20;;;9.70;;
72590;SDS011;60625;51.212;5.952;2022-12-11T20:32:31;23.50;;;11.90;;
72590;SDS011;60625;51.212;5.952;2022-12-11T20:37:33;25.80;;;12.00;;
72590;SDS011;60625;51.212;5.952;2022-12-11T20:42:34;25.20;;;10.10;;
72590;SDS011;60625;51.212;5.952;2022-12-11T20:47:34;23.70;;;10.70;;
72590;SDS011;60625;51.212;5.952;2022-12-11T20:52:36;21.00;;;10.30;;
72590;SDS011;60625;51.212;5.952;2022-12-11T20:57:36;25.70;;;11.90;;
72590;SDS011;60625;51.212;5.952;2022-12-11T21:02:38;20.60;;;9.70;;
72590;SDS011;60625;51.212;5.952;2022-12-11T21:07:38;24.10;;;11.20;;
72590;SDS011;60625;51.212;5.952;2022-12-11T21:12:38;22.90;;;11.00;;
72590;SDS011;60625;51.212;5.952;2022-12-11T21:17:39;21.40;;;10.80;;
72590;SDS011;60625;51.212;5.952;2022-12-11T21:22:40;31.30;;;12.90;;
72590;SDS011;60625;51.212;5.952;2022-12-11T21:27:40;27.50;;;12.40;;
72590;SDS011;60625;51.212;5.952;2022-12-11T21:32:41;27.80;;;11.90;;
72590;SDS011;60625;51.212;5.952;2022-12-11T21:37:41;26.80;;;12.20;;
72590;SDS011;60625;51.212;5.952;2022-12-11T21:42:42;29.30;;;13.00;;
72590;SDS011;60625;51.212;5.952;2022-12-11T21:47:42;29.50;;;13.10;;
72590;SDS011;60625;51.212;5.952;2022-12-11T21:52:43;32.80;;;14.50;;
72590;SDS011;60625;51.212;5.952;2022-12-11T21:57:43;37.30;;;17.10;;
72590;SDS011;60625;51.212;5.952;2022-12-11T22:02:44;34.30;;;14.50;;
72590;SDS011;60625;51.212;5.952;2022-12-11T22:07:44;30.30;;;13.70;;
72590;SDS011;60625;51.212;5.952;2022-12-11T22:12:45;31.40;;;14.20;;
72590;SDS011;60625;51.212;5.952;2022-12-11T22:17:45;33.10;;;14.80;;
72590;SDS011;60625;51.212;5.952;2022-12-11T22:22:46;33.70;;;14.50;;
72590;SDS011;60625;51.212;5.952;2022-12-11T22:27:46;30.80;;;14.40;;
72590;SDS011;60625;51.212;5.952;2022-12-11T22:32:46;37.70;;;14.10;;
72590;SDS011;60625;51.212;5.952;2022-12-11T22:37:47;31.90;;;15.00;;
72590;SDS011;60625;51.212;5.952;2022-12-11T22:42:48;31.20;;;13.90;;
72590;SDS011;60625;51.212;5.952;2022-12-11T22:47:48;34.50;;;15.40;;
72590;SDS011;60625;51.212;5.952;2022-12-11T22:52:49;34.90;;;15.10;;
72590;SDS011;60625;51.212;5.952;2022-12-11T22:57:49;29.60;;;13.90;;
72590;SDS011;60625;51.212;5.952;2022-12-11T23:02:52;42.60;;;16.70;;
72590;SDS011;60625;51.212;5.952;2022-12-11T23:07:52;66.20;;;27.10;;
72590;SDS011;60625;51.212;5.952;2022-12-11T23:12:52;72.10;;;27.20;;
72590;SDS011;60625;51.212;5.952;2022-12-11T23:17:53;35.40;;;14.40;;
72590;SDS011;60625;51.212;5.952;2022-12-11T23:22:53;34.10;;;14.00;;
72590;SDS011;60625;51.212;5.952;2022-12-11T23:27:54;30.20;;;14.00;;
72590;SDS011;60625;51.212;5.952;2022-12-11T23:32:55;29.20;;;12.50;;
72590;SDS011;60625;51.212;5.952;2022-12-11T23:37:55;31.60;;;13.70;;
72590;SDS011;60625;51.212;5.952;2022-12-11T23:42:56;30.20;;;13.00;;
72590;SDS011;60625;51.212;5.952;2022-12-11T23:47:56;28.70;;;12.40;;
72590;SDS011;60625;51.212;5.952;2022-12-11T23:52:58;26.10;;;12.30;;
72590;SDS011;60625;51.212;5.952;2022-12-11T23:58:00;30.60;;;12.30;;
